Time;durP1;ratioP1;P1;durP2;ratioP2;P2;SDS_P1;SDS_P2;PMS_P1;PMS_P2;Temp;Humidity;BMP_temperature;BMP_pressure;BME280_temperature;BME280_humidity;BME280_pressure;Samples;Min_cycle;Max_cycle;Signal;HPM_P1;HPM_P2
2022/06/26 00:00:54;;;;;;;0.30;0.30;;;;;;;;;;5016963;28;20053;-67
2022/06/26 00:03:20;;;;;;;0.10;0.10;;;;;;;;;;5017551;28;20064;-68
2022/06/26 00:05:46;;;;;;;0.10;0.10;;;;;;;;;;5017700;28;20042;-68
2022/06/26 00:08:12;;;;;;;0.22;0.22;;;;;;;;;;5017477;28;20080;-68
2022/06/26 00:10:39;;;;;;;0.10;0.10;;;;;;;;;;5016649;28;20128;-68
2022/06/26 00:13:05;;;;;;;0.20;0.20;;;;;;;;;;5015668;28;20084;-68
2022/06/26 00:15:31;;;;;;;0.10;0.10;;;;;;;;;;5008113;28;20057;-67
2022/06/26 00:17:58;;;;;;;0.20;0.20;;;;;;;;;;5013392;28;20029;-68
2022/06/26 00:20:24;;;;;;;0.20;0.20;;;;;;;;;;5016715;28;20132;-68
2022/06/26 00:22:50;;;;;;;0.20;0.20;;;;;;;;;;5016376;28;20156;-68
2022/06/26 00:25:16;;;;;;;0.65;0.47;;;;;;;;;;5016040;28;20041;-68
2022/06/26 00:27:42;;;;;;;0.10;0.10;;;;;;;;;;5011930;28;20065;-68
2022/06/26 00:30:08;;;;;;;0.20;0.20;;;;;;;;;;4998005;28;20117;-68
2022/06/26 00:32:34;;;;;;;0.20;0.20;;;;;;;;;;5017800;28;20055;-67
2022/06/26 00:35:01;;;;;;;0.10;0.10;;;;;;;;;;5029473;28;20072;-68
2022/06/26 00:37:27;;;;;;;0.25;0.25;;;;;;;;;;5023920;28;20072;-67
2022/06/26 00:39:53;;;;;;;0.30;0.30;;;;;;;;;;5027410;28;20045;-68
2022/06/26 00:42:19;;;;;;;0.10;0.10;;;;;;;;;;5036300;28;20048;-68
2022/06/26 00:44:45;;;;;;;0.20;0.20;;;;;;;;;;5026635;28;20084;-67
2022/06/26 00:47:11;;;;;;;0.20;0.20;;;;;;;;;;5030011;28;20045;-68
2022/06/26 00:49:37;;;;;;;0.30;0.30;;;;;;;;;;5018249;28;20037;-67
2022/06/26 00:52:04;;;;;;;0.10;0.10;;;;;;;;;;5031751;28;20468;-68
2022/06/26 00:54:30;;;;;;;0.20;0.20;;;;;;;;;;5020966;28;20052;-68
2022/06/26 00:56:58;;;;;;;0.75;0.57;;;;;;;;;;5022104;28;20092;-67
2022/06/26 00:59:27;;;;;;;0.30;0.30;;;;;;;;;;5034745;28;20038;-68
2022/06/26 01:01:53;;;;;;;0.10;0.10;;;;;;;;;;5034376;28;20068;-68
2022/06/26 01:04:20;;;;;;;0.10;0.10;;;;;;;;;;5034525;28;20037;-67
2022/06/26 01:06:49;;;;;;;0.30;0.30;;;;;;;;;;5035097;28;20041;-68
2022/06/26 01:09:15;;;;;;;0.10;0.10;;;;;;;;;;5034148;28;20563;-68
2022/06/26 01:11:42;;;;;;;0.28;0.28;;;;;;;;;;5035470;28;20049;-68
2022/06/26 01:14:09;;;;;;;0.10;0.10;;;;;;;;;;5034404;28;20407;-67
2022/06/26 01:16:35;;;;;;;0.10;0.10;;;;;;;;;;5036096;28;20502;-67
2022/06/26 01:19:01;;;;;;;0.32;0.32;;;;;;;;;;5035642;28;20140;-68
2022/06/26 01:21:28;;;;;;;0.22;0.22;;;;;;;;;;5035669;28;20053;-67
2022/06/26 01:23:55;;;;;;;0.10;0.10;;;;;;;;;;5035491;28;20037;-68
2022/06/26 01:26:21;;;;;;;0.10;0.10;;;;;;;;;;5035555;28;20054;-68
2022/06/26 01:28:48;;;;;;;0.10;0.10;;;;;;;;;;5035279;28;20041;-68
2022/06/26 01:31:14;;;;;;;0.10;0.10;;;;;;;;;;5034887;28;20120;-68
2022/06/26 01:33:40;;;;;;;0.10;0.10;;;;;;;;;;5034764;28;20126;-68
2022/06/26 01:36:06;;;;;;;0.10;0.10;;;;;;;;;;5035461;28;20488;-68
2022/06/26 01:38:32;;;;;;;0.17;0.17;;;;;;;;;;5034996;28;20037;-67
2022/06/26 01:40:59;;;;;;;0.10;0.10;;;;;;;;;;5035032;28;20179;-68
2022/06/26 01:43:30;;;;;;;0.20;0.20;;;;;;;;;;5035224;28;20041;-67
2022/06/26 01:45:56;;;;;;;0.25;0.25;;;;;;;;;;5035041;28;20041;-67
2022/06/26 01:48:24;;;;;;;1.45;0.40;;;;;;;;;;5035148;28;20120;-68
2022/06/26 01:50:51;;;;;;;0.20;0.20;;;;;;;;;;5034761;28;20124;-67
2022/06/26 01:53:17;;;;;;;0.10;0.10;;;;;;;;;;5034992;28;20045;-68
2022/06/26 01:55:43;;;;;;;0.10;0.10;;;;;;;;;;5034893;28;20049;-67
2022/06/26 01:58:10;;;;;;;0.10;0.10;;;;;;;;;;5035273;28;20037;-67
2022/06/26 02:00:37;;;;;;;0.20;0.20;;;;;;;;;;5034425;28;20115;-68
2022/06/26 02:03:04;;;;;;;0.10;0.10;;;;;;;;;;5034623;28;20049;-67
2022/06/26 02:05:30;;;;;;;0.10;0.10;;;;;;;;;;5034962;28;20049;-68
2022/06/26 02:07:56;;;;;;;0.10;0.10;;;;;;;;;;5034607;28;20042;-68
2022/06/26 02:15:53;;;;;;;0.20;0.20;;;;;;;;;;5033998;28;20163;-67
2022/06/26 02:18:20;;;;;;;0.15;0.15;;;;;;;;;;5034219;28;20046;-68
2022/06/26 02:20:46;;;;;;;0.10;0.10;;;;;;;;;;5034419;28;20082;-68
2022/06/26 02:23:13;;;;;;;0.10;0.10;;;;;;;;;;5034180;28;20077;-68
2022/06/26 02:25:39;;;;;;;0.10;0.10;;;;;;;;;;5034574;28;20048;-68
2022/06/26 02:28:05;;;;;;;0.10;0.10;;;;;;;;;;5035594;28;20061;-68
2022/06/26 02:30:31;;;;;;;0.10;0.10;;;;;;;;;;5034647;28;20099;-67
2022/06/26 02:32:57;;;;;;;0.20;0.20;;;;;;;;;;5034297;28;20484;-68
2022/06/26 02:35:24;;;;;;;0.15;0.15;;;;;;;;;;5034943;28;20510;-68
2022/06/26 02:37:50;;;;;;;0.10;0.10;;;;;;;;;;5034582;28;20064;-68
2022/06/26 02:40:19;;;;;;;0.10;0.10;;;;;;;;;;5034566;28;20464;-68
2022/06/26 02:42:45;;;;;;;0.17;0.17;;;;;;;;;;5034400;28;20041;-67
2022/06/26 02:45:11;;;;;;;0.20;0.20;;;;;;;;;;5034549;28;20050;-68
2022/06/26 02:47:38;;;;;;;0.10;0.10;;;;;;;;;;5034705;28;20052;-68
2022/06/26 02:50:05;;;;;;;0.57;0.57;;;;;;;;;;5034190;28;20511;-68
2022/06/26 02:52:31;;;;;;;0.10;0.10;;;;;;;;;;5034231;28;20048;-67
2022/06/26 02:54:57;;;;;;;0.20;0.20;;;;;;;;;;5034985;28;20069;-67
2022/06/26 02:57:24;;;;;;;0.10;0.10;;;;;;;;;;5034145;28;20191;-67
2022/06/26 02:59:50;;;;;;;0.10;0.10;;;;;;;;;;5034962;28;20468;-67
2022/06/26 03:02:16;;;;;;;0.32;0.32;;;;;;;;;;5034496;28;20087;-68
2022/06/26 03:04:42;;;;;;;0.10;0.10;;;;;;;;;;5034076;28;20075;-67
2022/06/26 03:07:08;;;;;;;0.10;0.10;;;;;;;;;;5034359;28;20045;-68
2022/06/26 03:09:34;;;;;;;0.10;0.10;;;;;;;;;;5034912;28;20037;-67
2022/06/26 03:12:01;;;;;;;0.10;0.10;;;;;;;;;;5033883;28;20048;-67
2022/06/26 03:14:27;;;;;;;0.10;0.10;;;;;;;;;;5034505;28;20042;-68
2022/06/26 03:16:53;;;;;;;0.10;0.10;;;;;;;;;;5034307;28;20136;-68
2022/06/26 03:19:20;;;;;;;0.10;0.10;;;;;;;;;;5034531;28;20099;-68
2022/06/26 03:21:46;;;;;;;0.10;0.10;;;;;;;;;;5033618;28;20035;-68
2022/06/26 03:24:12;;;;;;;0.10;0.10;;;;;;;;;;5037539;28;20115;-67
2022/06/26 03:26:38;;;;;;;0.10;0.10;;;;;;;;;;5037660;28;20496;-68
2022/06/26 03:29:06;;;;;;;0.10;0.10;;;;;;;;;;5038027;28;20068;-68
2022/06/26 03:31:32;;;;;;;0.10;0.10;;;;;;;;;;5037396;28;20544;-68
2022/06/26 03:33:58;;;;;;;0.10;0.10;;;;;;;;;;5037284;28;20046;-67
2022/06/26 03:36:25;;;;;;;0.10;0.10;;;;;;;;;;5037857;28;20531;-68
2022/06/26 03:38:52;;;;;;;0.10;0.10;;;;;;;;;;5037775;28;20044;-67
2022/06/26 03:41:18;;;;;;;0.10;0.10;;;;;;;;;;5037354;28;20038;-68
2022/06/26 03:43:44;;;;;;;0.20;0.20;;;;;;;;;;5037741;28;20484;-68
2022/06/26 03:46:11;;;;;;;0.20;0.20;;;;;;;;;;5036905;28;20073;-68
2022/06/26 03:48:37;;;;;;;0.10;0.10;;;;;;;;;;5037325;28;20041;-68
2022/06/26 03:51:04;;;;;;;0.10;0.10;;;;;;;;;;5037530;28;20045;-67
2022/06/26 03:53:31;;;;;;;0.10;0.10;;;;;;;;;;5036979;28;20061;-67
2022/06/26 03:55:57;;;;;;;0.10;0.10;;;;;;;;;;5037373;28;20055;-67
2022/06/26 03:58:24;;;;;;;0.10;0.10;;;;;;;;;;5037382;28;20041;-68
2022/06/26 04:00:50;;;;;;;0.10;0.10;;;;;;;;;;5037133;28;20052;-68
2022/06/26 04:03:16;;;;;;;0.10;0.10;;;;;;;;;;5037114;28;20068;-68
2022/06/26 04:05:42;;;;;;;0.10;0.10;;;;;;;;;;5037351;28;20045;-67
2022/06/26 04:08:09;;;;;;;0.10;0.10;;;;;;;;;;5037052;28;20041;-68
2022/06/26 04:10:35;;;;;;;0.10;0.10;;;;;;;;;;5037383;28;20041;-67
2022/06/26 04:13:03;;;;;;;0.10;0.10;;;;;;;;;;5036849;28;20111;-67
2022/06/26 04:15:30;;;;;;;0.10;0.10;;;;;;;;;;5037257;28;20052;-67
2022/06/26 04:17:56;;;;;;;0.22;0.22;;;;;;;;;;5036810;28;20047;-67
2022/06/26 04:20:23;;;;;;;0.10;0.10;;;;;;;;;;5037056;28;20480;-67
2022/06/26 04:23:08;;;;;;;0.10;0.10;;;;;;;;;;5036780;28;20034;-67
2022/06/26 04:25:35;;;;;;;0.10;0.10;;;;;;;;;;5036866;28;20041;-67
2022/06/26 04:28:02;;;;;;;0.10;0.10;;;;;;;;;;5035540;28;20053;-67
2022/06/26 04:30:28;;;;;;;0.10;0.10;;;;;;;;;;5036336;28;20048;-67
2022/06/26 04:32:54;;;;;;;0.15;0.15;;;;;;;;;;5035858;28;21941;-68
2022/06/26 04:35:20;;;;;;;0.10;0.10;;;;;;;;;;5036500;28;20043;-68
2022/06/26 04:37:46;;;;;;;0.17;0.17;;;;;;;;;;5035914;28;20048;-68
2022/06/26 04:40:13;;;;;;;0.10;0.10;;;;;;;;;;5036068;28;20034;-67
2022/06/26 04:42:40;;;;;;;0.10;0.10;;;;;;;;;;5035917;28;20476;-67
2022/06/26 04:45:06;;;;;;;0.10;0.10;;;;;;;;;;5035771;28;20052;-68
2022/06/26 04:47:32;;;;;;;0.10;0.10;;;;;;;;;;5036073;28;20038;-67
2022/06/26 04:49:59;;;;;;;0.10;0.10;;;;;;;;;;5035952;28;20123;-67
2022/06/26 04:52:25;;;;;;;0.22;0.22;;;;;;;;;;5035870;28;20052;-67
2022/06/26 04:54:51;;;;;;;0.10;0.10;;;;;;;;;;5036318;28;20056;-68
2022/06/26 04:57:18;;;;;;;0.10;0.10;;;;;;;;;;5035851;28;20096;-67
2022/06/26 04:59:44;;;;;;;0.10;0.10;;;;;;;;;;5035785;28;20570;-67
2022/06/26 05:02:11;;;;;;;0.10;0.10;;;;;;;;;;5035445;28;20492;-67
2022/06/26 05:04:37;;;;;;;0.10;0.10;;;;;;;;;;5035983;28;20084;-67
2022/06/26 05:07:04;;;;;;;0.20;0.20;;;;;;;;;;5035887;28;20038;-67
2022/06/26 05:09:30;;;;;;;0.10;0.10;;;;;;;;;;5035588;28;20049;-68
2022/06/26 05:11:57;;;;;;;0.10;0.10;;;;;;;;;;5035019;28;20564;-67
2022/06/26 05:14:23;;;;;;;0.15;0.15;;;;;;;;;;5035112;28;20041;-67
2022/06/26 05:16:49;;;;;;;0.10;0.10;;;;;;;;;;5035178;28;20049;-67
2022/06/26 05:19:16;;;;;;;0.10;0.10;;;;;;;;;;5035137;28;20033;-67
2022/06/26 05:21:42;;;;;;;0.10;0.10;;;;;;;;;;5034443;28;20042;-68
2022/06/26 05:24:08;;;;;;;0.10;0.10;;;;;;;;;;5015518;28;20049;-68
2022/06/26 05:26:34;;;;;;;0.10;0.10;;;;;;;;;;5015212;28;20054;-68
2022/06/26 05:29:01;;;;;;;0.10;0.10;;;;;;;;;;5015723;28;20140;-68
2022/06/26 05:31:27;;;;;;;0.10;0.10;;;;;;;;;;5015409;28;20169;-68
2022/06/26 05:33:53;;;;;;;0.10;0.10;;;;;;;;;;5015289;28;20073;-68
2022/06/26 05:36:19;;;;;;;0.10;0.10;;;;;;;;;;5015953;28;20038;-68
2022/06/26 05:38:45;;;;;;;1.70;0.30;;;;;;;;;;5015273;28;20503;-68
2022/06/26 05:41:12;;;;;;;0.30;0.30;;;;;;;;;;5015157;28;20129;-68
2022/06/26 05:43:38;;;;;;;0.00;0.00;;;;;;;;;;5015326;28;20080;-68
2022/06/26 05:46:04;;;;;;;0.10;0.10;;;;;;;;;;5014887;28;20046;-68
2022/06/26 05:48:30;;;;;;;0.10;0.10;;;;;;;;;;5015472;28;20041;-68
2022/06/26 05:50:56;;;;;;;0.10;0.10;;;;;;;;;;5015639;28;20134;-68
2022/06/26 05:53:22;;;;;;;0.10;0.10;;;;;;;;;;5015639;28;20076;-68
2022/06/26 05:55:49;;;;;;;0.10;0.10;;;;;;;;;;5015339;28;20080;-68
2022/06/26 05:58:15;;;;;;;0.10;0.10;;;;;;;;;;5014975;28;20504;-68
2022/06/26 06:00:42;;;;;;;0.20;0.20;;;;;;;;;;5015414;28;20103;-68
2022/06/26 06:03:08;;;;;;;0.10;0.10;;;;;;;;;;5015216;28;20072;-68
2022/06/26 06:05:36;;;;;;;0.10;0.10;;;;;;;;;;5003473;28;20086;-66
2022/06/26 06:08:02;;;;;;;0.10;0.10;;;;;;;;;;4995068;28;20073;-66
2022/06/26 06:10:29;;;;;;;0.10;0.10;;;;;;;;;;4995624;28;20512;-66
2022/06/26 06:12:55;;;;;;;0.10;0.10;;;;;;;;;;4995194;28;20042;-66
2022/06/26 06:15:22;;;;;;;0.10;0.10;;;;;;;;;;4995211;28;20105;-66
2022/06/26 06:17:48;;;;;;;0.10;0.10;;;;;;;;;;4995102;28;20030;-66
2022/06/26 06:20:19;;;;;;;0.10;0.10;;;;;;;;;;4995190;28;20046;-66
2022/06/26 06:22:51;;;;;;;1.92;1.00;;;;;;;;;;4995051;28;20089;-66
2022/06/26 06:25:17;;;;;;;0.10;0.10;;;;;;;;;;4994827;28;20043;-66
2022/06/26 06:27:43;;;;;;;0.10;0.10;;;;;;;;;;4994493;28;20054;-66
2022/06/26 06:30:11;;;;;;;0.10;0.10;;;;;;;;;;4995076;28;20084;-66
2022/06/26 06:32:37;;;;;;;0.10;0.10;;;;;;;;;;4994782;28;20168;-66
2022/06/26 06:35:03;;;;;;;0.10;0.10;;;;;;;;;;4994963;28;20141;-66
2022/06/26 06:37:29;;;;;;;0.10;0.10;;;;;;;;;;4994891;28;20046;-66
2022/06/26 06:39:56;;;;;;;0.10;0.10;;;;;;;;;;4995003;28;20034;-66
2022/06/26 06:42:22;;;;;;;0.10;0.10;;;;;;;;;;4994483;28;20038;-66
2022/06/26 06:44:48;;;;;;;0.10;0.10;;;;;;;;;;4995325;28;20065;-66
2022/06/26 06:47:14;;;;;;;0.10;0.10;;;;;;;;;;4994971;28;20046;-66
2022/06/26 06:49:40;;;;;;;0.10;0.10;;;;;;;;;;4994661;28;20440;-66
2022/06/26 06:52:07;;;;;;;0.10;0.10;;;;;;;;;;4994947;28;20042;-66
2022/06/26 06:54:33;;;;;;;0.10;0.10;;;;;;;;;;4994832;28;20129;-66
2022/06/26 06:56:59;;;;;;;0.10;0.10;;;;;;;;;;4996796;28;20054;-66
2022/06/26 06:59:26;;;;;;;0.10;0.10;;;;;;;;;;4998593;28;20042;-66
2022/06/26 07:01:52;;;;;;;0.10;0.10;;;;;;;;;;4998338;28;20042;-66
2022/06/26 07:04:19;;;;;;;0.10;0.10;;;;;;;;;;4998709;28;20053;-66
2022/06/26 07:06:45;;;;;;;0.10;0.10;;;;;;;;;;5002139;28;20068;-66
2022/06/26 07:09:12;;;;;;;0.10;0.10;;;;;;;;;;5016693;28;20535;-66
2022/06/26 07:11:38;;;;;;;0.10;0.10;;;;;;;;;;5017291;28;20041;-66
2022/06/26 07:14:05;;;;;;;0.10;0.10;;;;;;;;;;5017878;28;20034;-67
2022/06/26 07:16:31;;;;;;;0.10;0.10;;;;;;;;;;4998515;28;20520;-67
2022/06/26 07:18:57;;;;;;;0.10;0.10;;;;;;;;;;5013253;28;20046;-67
2022/06/26 07:21:23;;;;;;;0.10;0.10;;;;;;;;;;5015851;28;20050;-67
2022/06/26 07:23:49;;;;;;;0.10;0.10;;;;;;;;;;5015516;28;20044;-66
2022/06/26 07:26:16;;;;;;;0.10;0.10;;;;;;;;;;5015745;28;20127;-67
2022/06/26 07:28:42;;;;;;;0.10;0.10;;;;;;;;;;5012096;28;20047;-67
2022/06/26 07:31:08;;;;;;;0.10;0.10;;;;;;;;;;4997552;28;20049;-67
2022/06/26 07:36:19;;;;;;;0.10;0.10;;;;;;;;;;4997487;28;20068;-67
2022/06/26 07:38:45;;;;;;;0.10;0.10;;;;;;;;;;4997912;28;20046;-67
2022/06/26 07:41:11;;;;;;;0.17;0.17;;;;;;;;;;5004915;28;20443;-67
2022/06/26 07:43:38;;;;;;;0.15;0.15;;;;;;;;;;5017724;28;20077;-67
2022/06/26 07:46:04;;;;;;;0.10;0.10;;;;;;;;;;5017087;28;20088;-67
2022/06/26 07:48:31;;;;;;;0.10;0.10;;;;;;;;;;5016511;28;20497;-67
2022/06/26 07:50:57;;;;;;;0.15;0.15;;;;;;;;;;5016952;28;20034;-67
2022/06/26 07:53:23;;;;;;;0.10;0.10;;;;;;;;;;5016035;28;20406;-66
2022/06/26 07:55:49;;;;;;;0.10;0.10;;;;;;;;;;5017643;28;20061;-67
2022/06/26 07:58:16;;;;;;;0.25;0.25;;;;;;;;;;5016023;28;20034;-67
2022/06/26 08:00:42;;;;;;;0.10;0.10;;;;;;;;;;5031374;28;20128;-67
2022/06/26 08:03:09;;;;;;;0.10;0.10;;;;;;;;;;5022920;28;20045;-67
2022/06/26 08:05:35;;;;;;;0.13;0.13;;;;;;;;;;5016234;28;20050;-67
2022/06/26 08:08:02;;;;;;;0.10;0.10;;;;;;;;;;5020042;28;20045;-67
2022/06/26 08:10:28;;;;;;;0.10;0.10;;;;;;;;;;5022941;28;20077;-67
2022/06/26 08:12:55;;;;;;;0.30;0.30;;;;;;;;;;5036568;28;20041;-67
2022/06/26 08:15:21;;;;;;;0.10;0.10;;;;;;;;;;5026188;28;20058;-67
2022/06/26 08:17:48;;;;;;;0.10;0.10;;;;;;;;;;5015350;28;20543;-67
2022/06/26 08:20:14;;;;;;;0.10;0.10;;;;;;;;;;5015339;28;20125;-67
2022/06/26 08:22:40;;;;;;;0.10;0.10;;;;;;;;;;5015347;28;20042;-67
2022/06/26 08:25:06;;;;;;;0.10;0.10;;;;;;;;;;5003225;28;20513;-67
2022/06/26 08:27:33;;;;;;;0.20;0.20;;;;;;;;;;5005058;28;20077;-67
2022/06/26 08:29:59;;;;;;;0.10;0.10;;;;;;;;;;5016411;28;20029;-67
2022/06/26 08:32:25;;;;;;;0.10;0.10;;;;;;;;;;5014320;28;20050;-67
2022/06/26 08:34:52;;;;;;;0.10;0.10;;;;;;;;;;5017384;28;20050;-67
2022/06/26 08:37:18;;;;;;;0.10;0.10;;;;;;;;;;5016984;28;20152;-67
2022/06/26 08:39:44;;;;;;;0.10;0.10;;;;;;;;;;5014055;28;20042;-67
2022/06/26 08:42:11;;;;;;;0.20;0.20;;;;;;;;;;5015977;28;20049;-67
2022/06/26 08:44:41;;;;;;;0.28;0.28;;;;;;;;;;5014096;28;20107;-67
2022/06/26 08:47:08;;;;;;;0.10;0.10;;;;;;;;;;5014929;28;20066;-67
2022/06/26 08:49:35;;;;;;;0.10;0.10;;;;;;;;;;5015640;28;20045;-69
2022/06/26 08:52:01;;;;;;;0.10;0.10;;;;;;;;;;5010049;28;20042;-68
2022/06/26 08:54:29;;;;;;;0.10;0.10;;;;;;;;;;5015597;28;20042;-67
2022/06/26 08:56:55;;;;;;;0.10;0.10;;;;;;;;;;5015336;28;20049;-67
2022/06/26 08:59:21;;;;;;;0.10;0.10;;;;;;;;;;5014030;28;20500;-68
2022/06/26 09:01:48;;;;;;;0.10;0.10;;;;;;;;;;5014060;28;20048;-68
2022/06/26 09:04:14;;;;;;;0.32;0.32;;;;;;;;;;5014461;28;20088;-68
2022/06/26 09:06:41;;;;;;;0.10;0.10;;;;;;;;;;5013902;28;20071;-68
2022/06/26 09:09:23;;;;;;;0.20;0.20;;;;;;;;;;5015039;28;20038;-68
2022/06/26 09:11:50;;;;;;;0.10;0.10;;;;;;;;;;5003461;28;20064;-68
2022/06/26 09:14:17;;;;;;;0.20;0.20;;;;;;;;;;5015488;28;20129;-68
2022/06/26 09:16:43;;;;;;;0.20;0.20;;;;;;;;;;5014378;28;20580;-68
2022/06/26 09:19:10;;;;;;;0.10;0.10;;;;;;;;;;5015048;28;20029;-68
2022/06/26 09:21:37;;;;;;;0.10;0.10;;;;;;;;;;5014066;28;20045;-68
2022/06/26 09:24:03;;;;;;;0.20;0.20;;;;;;;;;;5014800;28;20046;-68
2022/06/26 09:26:29;;;;;;;0.40;0.40;;;;;;;;;;5014520;28;20050;-68
2022/06/26 09:28:56;;;;;;;0.20;0.20;;;;;;;;;;5015007;28;20043;-68
2022/06/26 09:31:23;;;;;;;0.20;0.20;;;;;;;;;;5014046;28;20037;-68
2022/06/26 09:33:49;;;;;;;0.10;0.10;;;;;;;;;;5014209;28;20037;-68
2022/06/26 09:36:17;;;;;;;0.20;0.20;;;;;;;;;;5014549;28;20107;-68
2022/06/26 09:38:49;;;;;;;0.20;0.20;;;;;;;;;;5014270;28;20132;-68
2022/06/26 09:41:15;;;;;;;0.10;0.10;;;;;;;;;;4997043;28;20050;-68
2022/06/26 09:43:42;;;;;;;0.30;0.30;;;;;;;;;;5008032;28;20100;-68
2022/06/26 09:46:10;;;;;;;0.20;0.20;;;;;;;;;;5014886;28;20088;-68
2022/06/26 09:48:36;;;;;;;0.20;0.20;;;;;;;;;;5013986;28;20092;-68
2022/06/26 09:51:03;;;;;;;0.30;0.30;;;;;;;;;;5014148;28;20092;-68
2022/06/26 09:53:30;;;;;;;0.10;0.10;;;;;;;;;;5013574;28;20041;-68
2022/06/26 09:55:57;;;;;;;0.20;0.20;;;;;;;;;;5014661;28;20050;-68
2022/06/26 09:58:24;;;;;;;0.20;0.20;;;;;;;;;;5014327;28;20036;-68
2022/06/26 10:06:27;;;;;;;0.15;0.15;;;;;;;;;;5029215;28;20040;-68
2022/06/26 10:08:57;;;;;;;0.28;0.28;;;;;;;;;;5012840;28;20133;-68
2022/06/26 10:11:24;;;;;;;0.10;0.10;;;;;;;;;;5013927;28;20030;-68
2022/06/26 10:13:51;;;;;;;0.20;0.20;;;;;;;;;;5013316;28;20073;-68
2022/06/26 10:16:36;;;;;;;0.10;0.10;;;;;;;;;;5014059;28;20057;-68
2022/06/26 10:19:05;;;;;;;0.20;0.20;;;;;;;;;;5013481;28;20076;-68
2022/06/26 10:21:42;;;;;;;0.15;0.15;;;;;;;;;;5027380;28;20111;-68
2022/06/26 10:24:08;;;;;;;0.30;0.30;;;;;;;;;;5013796;28;20054;-68
2022/06/26 10:26:34;;;;;;;0.10;0.10;;;;;;;;;;5014214;28;20065;-68
2022/06/26 10:29:08;;;;;;;0.20;0.20;;;;;;;;;;5014006;28;20069;-68
2022/06/26 10:31:44;;;;;;;0.20;0.20;;;;;;;;;;5015355;28;20121;-68
2022/06/26 10:34:20;;;;;;;0.32;0.32;;;;;;;;;;5018204;28;20095;-68
2022/06/26 10:37:04;;;;;;;0.20;0.20;;;;;;;;;;5018706;28;20050;-68
2022/06/26 10:39:56;;;;;;;0.25;0.25;;;;;;;;;;5017235;28;20041;-69
2022/06/26 10:45:12;;;;;;;1.88;0.85;;;;;;;;;;5016727;28;20041;-69
2022/06/26 10:47:42;;;;;;;1.40;1.30;;;;;;;;;;5015809;28;20132;-69
2022/06/26 10:50:31;;;;;;;0.97;0.40;;;;;;;;;;5027060;28;20042;-70
2022/06/26 10:53:16;;;;;;;0.30;0.30;;;;;;;;;;5017911;28;20476;-70
2022/06/26 10:55:49;;;;;;;0.20;0.20;;;;;;;;;;5026957;28;20049;-70
2022/06/26 10:58:20;;;;;;;0.30;0.30;;;;;;;;;;5016721;28;20069;-69
2022/06/26 11:00:46;;;;;;;;;;;;;;;;;;5017786;28;20038;-70
2022/06/26 11:03:16;;;;;;;0.52;0.52;;;;;;;;;;5007275;28;20344;-69
2022/06/26 11:05:52;;;;;;;0.30;0.30;;;;;;;;;;5017503;28;20046;-70
2022/06/26 11:08:27;;;;;;;3.22;0.60;;;;;;;;;;5015705;28;20068;-70
2022/06/26 11:10:53;;;;;;;0.75;0.60;;;;;;;;;;5016437;28;20041;-70
2022/06/26 11:13:19;;;;;;;0.30;0.30;;;;;;;;;;5017299;28;20038;-69
2022/06/26 11:15:46;;;;;;;0.20;0.20;;;;;;;;;;5016405;28;20081;-70
2022/06/26 11:18:12;;;;;;;0.32;0.32;;;;;;;;;;5017376;28;20534;-70
2022/06/26 11:20:54;;;;;;;0.50;0.50;;;;;;;;;;5018167;28;20080;-69
2022/06/26 11:23:20;;;;;;;5.18;0.35;;;;;;;;;;5012137;28;20038;-69
2022/06/26 11:26:06;;;;;;;0.30;0.30;;;;;;;;;;5015754;28;20054;-69
2022/06/26 11:28:34;;;;;;;0.30;0.30;;;;;;;;;;5017803;28;20054;-69
2022/06/26 11:31:01;;;;;;;3.25;1.13;;;;;;;;;;5016576;28;20092;-70
2022/06/26 11:33:28;;;;;;;0.30;0.30;;;;;;;;;;5016478;28;20397;-70
2022/06/26 11:35:55;;;;;;;0.47;0.47;;;;;;;;;;5015367;28;20205;-69
2022/06/26 11:38:22;;;;;;;1.65;1.55;;;;;;;;;;5015989;28;20508;-70
2022/06/26 11:40:49;;;;;;;1.17;0.65;;;;;;;;;;5015622;28;20042;-69
2022/06/26 11:43:15;;;;;;;0.40;0.40;;;;;;;;;;5011205;28;20515;-70
2022/06/26 11:45:43;;;;;;;5.97;1.55;;;;;;;;;;5011696;28;20069;-69
2022/06/26 11:48:12;;;;;;;1.45;0.70;;;;;;;;;;5016519;28;20041;-68
2022/06/26 11:50:38;;;;;;;0.25;0.25;;;;;;;;;;5015725;28;20046;-68
2022/06/26 11:53:05;;;;;;;0.45;0.43;;;;;;;;;;5015815;28;20044;-69
2022/06/26 11:55:32;;;;;;;0.20;0.20;;;;;;;;;;5015223;28;20058;-69
2022/06/26 11:58:00;;;;;;;0.43;0.40;;;;;;;;;;5014139;28;20045;-69
2022/06/26 12:00:27;;;;;;;0.25;0.25;;;;;;;;;;5015344;28;20046;-69
2022/06/26 12:02:53;;;;;;;0.30;0.30;;;;;;;;;;5015079;28;20065;-69
2022/06/26 12:05:23;;;;;;;0.30;0.30;;;;;;;;;;5015594;28;20045;-69
2022/06/26 12:07:50;;;;;;;0.20;0.20;;;;;;;;;;5015055;28;20040;-69
2022/06/26 12:10:37;;;;;;;0.57;0.57;;;;;;;;;;5016246;28;20045;-69
2022/06/26 12:13:04;;;;;;;0.60;0.60;;;;;;;;;;5013392;28;20034;-68
2022/06/26 12:15:31;;;;;;;3.92;0.50;;;;;;;;;;5010153;28;20054;-68
2022/06/26 12:18:05;;;;;;;0.55;0.55;;;;;;;;;;5017050;28;20045;-68
2022/06/26 12:20:39;;;;;;;8.30;1.50;;;;;;;;;;5014592;28;20076;-69
2022/06/26 12:23:05;;;;;;;0.45;0.45;;;;;;;;;;5015307;28;20034;-69
2022/06/26 12:25:33;;;;;;;0.40;0.40;;;;;;;;;;5014635;28;20508;-69
2022/06/26 12:27:59;;;;;;;0.20;0.20;;;;;;;;;;5015948;28;20042;-69
2022/06/26 12:30:27;;;;;;;0.20;0.20;;;;;;;;;;5015969;28;20030;-68
2022/06/26 12:32:54;;;;;;;0.35;0.35;;;;;;;;;;5021052;28;20479;-68
2022/06/26 12:35:20;;;;;;;0.30;0.30;;;;;;;;;;5012643;28;20042;-68
2022/06/26 12:37:47;;;;;;;0.20;0.20;;;;;;;;;;5011749;28;20049;-68
2022/06/26 12:40:13;;;;;;;0.43;0.43;;;;;;;;;;5014011;28;20034;-68
2022/06/26 12:42:39;;;;;;;0.20;0.20;;;;;;;;;;5019643;28;20082;-68
2022/06/26 12:45:06;;;;;;;0.30;0.30;;;;;;;;;;5025254;28;20176;-68
2022/06/26 12:47:33;;;;;;;0.20;0.20;;;;;;;;;;5021282;28;20128;-68
2022/06/26 12:49:59;;;;;;;0.20;0.20;;;;;;;;;;5036196;28;20034;-68
2022/06/26 12:52:25;;;;;;;0.28;0.28;;;;;;;;;;5035874;28;20033;-69
2022/06/26 12:54:52;;;;;;;0.40;0.38;;;;;;;;;;5033596;28;20095;-69
2022/06/26 12:57:18;;;;;;;0.30;0.30;;;;;;;;;;5014038;28;20512;-70
2022/06/26 12:59:45;;;;;;;0.20;0.20;;;;;;;;;;5032982;28;20042;-69
2022/06/26 13:02:11;;;;;;;0.10;0.10;;;;;;;;;;5033591;28;20045;-69
2022/06/26 13:04:38;;;;;;;0.20;0.20;;;;;;;;;;5017533;28;20125;-69
2022/06/26 13:07:04;;;;;;;0.20;0.20;;;;;;;;;;5014606;28;20046;-69
2022/06/26 13:09:30;;;;;;;0.30;0.30;;;;;;;;;;5014523;28;20408;-69
2022/06/26 13:11:56;;;;;;;0.63;0.60;;;;;;;;;;5015335;28;20048;-70
2022/06/26 13:14:23;;;;;;;0.10;0.10;;;;;;;;;;5015157;28;20042;-69
2022/06/26 13:16:49;;;;;;;0.38;0.38;;;;;;;;;;5014411;28;20054;-69
2022/06/26 13:19:15;;;;;;;0.25;0.25;;;;;;;;;;5015374;28;20116;-69
2022/06/26 13:21:41;;;;;;;0.30;0.30;;;;;;;;;;5015619;28;20077;-69
2022/06/26 13:24:07;;;;;;;0.75;0.75;;;;;;;;;;5015445;28;20052;-69
2022/06/26 13:26:34;;;;;;;0.43;0.43;;;;;;;;;;5015051;28;20064;-70
2022/06/26 13:29:01;;;;;;;0.15;0.15;;;;;;;;;;5018355;28;20034;-69
2022/06/26 13:31:27;;;;;;;0.38;0.38;;;;;;;;;;5015910;28;20069;-70
2022/06/26 13:33:55;;;;;;;0.40;0.40;;;;;;;;;;5022126;28;20081;-69
2022/06/26 13:36:22;;;;;;;1.17;1.10;;;;;;;;;;5013599;28;20531;-70
2022/06/26 13:38:50;;;;;;;1.45;0.47;;;;;;;;;;5012847;28;20038;-70
2022/06/26 13:41:17;;;;;;;2.30;1.17;;;;;;;;;;5013613;28;20045;-69
2022/06/26 13:43:43;;;;;;;0.10;0.10;;;;;;;;;;5014729;28;20042;-70
2022/06/26 13:46:09;;;;;;;0.30;0.30;;;;;;;;;;5012375;28;20057;-69
2022/06/26 13:48:35;;;;;;;0.52;0.52;;;;;;;;;;5012253;28;20048;-69
2022/06/26 13:51:02;;;;;;;0.30;0.30;;;;;;;;;;5011871;28;20053;-70
2022/06/26 13:53:28;;;;;;;0.35;0.35;;;;;;;;;;5011525;28;20531;-70
2022/06/26 13:55:54;;;;;;;0.40;0.40;;;;;;;;;;5012394;28;20049;-70
2022/06/26 13:58:22;;;;;;;0.10;0.10;;;;;;;;;;5004698;28;20030;-69
2022/06/26 14:00:48;;;;;;;0.20;0.20;;;;;;;;;;5011372;28;20570;-69
2022/06/26 14:03:14;;;;;;;0.20;0.20;;;;;;;;;;5011946;28;20067;-69
2022/06/26 14:05:41;;;;;;;0.28;0.28;;;;;;;;;;5012582;28;20037;-70
2022/06/26 14:08:08;;;;;;;0.63;0.63;;;;;;;;;;5004184;28;20042;-69
2022/06/26 14:10:36;;;;;;;0.32;0.32;;;;;;;;;;5011937;28;20045;-70
2022/06/26 14:13:03;;;;;;;4.97;0.73;;;;;;;;;;5009254;28;20046;-69
2022/06/26 14:15:30;;;;;;;0.20;0.20;;;;;;;;;;5010466;28;20046;-69
2022/06/26 14:17:56;;;;;;;0.28;0.22;;;;;;;;;;5014237;28;20049;-69
2022/06/26 14:20:22;;;;;;;0.20;0.20;;;;;;;;;;5013699;28;20065;-69
2022/06/26 14:28:19;;;;;;;0.30;0.30;;;;;;;;;;5013876;28;20096;-68
2022/06/26 14:30:45;;;;;;;0.20;0.20;;;;;;;;;;5014704;28;20033;-69
2022/06/26 14:33:15;;;;;;;0.40;0.40;;;;;;;;;;5008779;28;20185;-69
2022/06/26 14:35:41;;;;;;;0.40;0.40;;;;;;;;;;5013702;28;20073;-69
2022/06/26 14:38:07;;;;;;;0.20;0.20;;;;;;;;;;5010678;28;20046;-69
2022/06/26 14:40:33;;;;;;;0.10;0.10;;;;;;;;;;5001713;28;20038;-69
2022/06/26 14:43:01;;;;;;;0.20;0.20;;;;;;;;;;5008041;28;20042;-69
2022/06/26 14:45:27;;;;;;;0.40;0.40;;;;;;;;;;5009298;28;20042;-69
2022/06/26 14:47:54;;;;;;;0.43;0.43;;;;;;;;;;5018927;28;20049;-69
2022/06/26 14:50:21;;;;;;;0.15;0.15;;;;;;;;;;5013389;28;20535;-68
2022/06/26 14:52:47;;;;;;;0.20;0.20;;;;;;;;;;5011896;28;20053;-69
2022/06/26 14:55:13;;;;;;;0.80;0.80;;;;;;;;;;5011297;28;20053;-70
2022/06/26 14:57:40;;;;;;;0.30;0.30;;;;;;;;;;5011964;28;20077;-70
2022/06/26 15:00:07;;;;;;;0.20;0.20;;;;;;;;;;5012432;28;20038;-70
2022/06/26 15:02:33;;;;;;;0.73;0.30;;;;;;;;;;5013643;28;20046;-70
2022/06/26 15:04:59;;;;;;;0.20;0.20;;;;;;;;;;5013408;28;20574;-70